sensor_id;sensor_type;location;lat;lon;timestamp;temperature;humidity
36586;DHT22;22591;48.314;11.562;2023-02-26T00:00:12;-0.20;99.90
36586;DHT22;22591;48.314;11.562;2023-02-26T00:02:43;-0.30;99.90
36586;DHT22;22591;48.314;11.562;2023-02-26T00:05:11;-0.30;99.90
36586;DHT22;22591;48.314;11.562;2023-02-26T00:07:37;-0.30;99.90
36586;DHT22;22591;48.314;11.562;2023-02-26T00:10:09;-0.30;99.90
36586;DHT22;22591;48.314;11.562;2023-02-26T00:12:35;-0.20;99.90
36586;DHT22;22591;48.314;11.562;2023-02-26T00:15:02;-0.30;99.90
36586;DHT22;22591;48.314;11.562;2023-02-26T00:17:43;-0.20;99.90
36586;DHT22;22591;48.314;11.562;2023-02-26T00:20:11;-0.20;99.90
36586;DHT22;22591;48.314;11.562;2023-02-26T00:22:38;-0.30;99.90
36586;DHT22;22591;48.314;11.562;2023-02-26T00:25:04;-0.30;99.90
36586;DHT22;22591;48.314;11.562;2023-02-26T00:27:30;-0.40;99.90
36586;DHT22;22591;48.314;11.562;2023-02-26T00:29:56;-0.40;99.90
36586;DHT22;22591;48.314;11.562;2023-02-26T00:32:21;-0.40;99.90
36586;DHT22;22591;48.314;11.562;2023-02-26T00:34:48;-0.40;99.90
36586;DHT22;22591;48.314;11.562;2023-02-26T00:40:45;-0.50;99.90
36586;DHT22;22591;48.314;11.562;2023-02-26T00:43:23;-0.60;99.90
36586;DHT22;22591;48.314;11.562;2023-02-26T00:51:48;-0.70;99.90
36586;DHT22;22591;48.314;11.562;2023-02-26T00:54:24;-0.70;99.90
36586;DHT22;22591;48.314;11.562;2023-02-26T00:56:51;-0.80;99.90
36586;DHT22;22591;48.314;11.562;2023-02-26T00:59:18;-0.70;99.90
36586;DHT22;22591;48.314;11.562;2023-02-26T01:01:44;-0.80;99.90
36586;DHT22;22591;48.314;11.562;2023-02-26T01:04:11;-0.80;99.90
36586;DHT22;22591;48.314;11.562;2023-02-26T01:06:42;-0.80;99.90
36586;DHT22;22591;48.314;11.562;2023-02-26T01:09:33;-0.80;99.90
36586;DHT22;22591;48.314;11.562;2023-02-26T01:12:03;-0.80;99.90
36586;DHT22;22591;48.314;11.562;2023-02-26T01:14:30;-1.00;99.90
36586;DHT22;22591;48.314;11.562;2023-02-26T01:17:16;-1.00;99.90
36586;DHT22;22591;48.314;11.562;2023-02-26T01:19:48;-1.00;99.90
36586;DHT22;22591;48.314;11.562;2023-02-26T01:22:43;-1.00;99.90
36586;DHT22;22591;48.314;11.562;2023-02-26T01:25:15;-1.00;99.90
36586;DHT22;22591;48.314;11.562;2023-02-26T01:27:42;-1.00;99.90
36586;DHT22;22591;48.314;11.562;2023-02-26T01:30:08;-1.00;99.90
36586;DHT22;22591;48.314;11.562;2023-02-26T01:35:46;-1.10;99.90
36586;DHT22;22591;48.314;11.562;2023-02-26T01:38:31;-1.20;99.90
36586;DHT22;22591;48.314;11.562;2023-02-26T01:41:54;-1.20;99.90
36586;DHT22;22591;48.314;11.562;2023-02-26T01:44:25;-1.20;99.90
36586;DHT22;22591;48.314;11.562;2023-02-26T01:49:36;-1.20;99.90
36586;DHT22;22591;48.314;11.562;2023-02-26T01:52:04;-1.20;99.90
36586;DHT22;22591;48.314;11.562;2023-02-26T01:54:32;-1.10;99.90
36586;DHT22;22591;48.314;11.562;2023-02-26T01:57:03;-1.00;99.90
36586;DHT22;22591;48.314;11.562;2023-02-26T01:59:32;-1.00;99.90
36586;DHT22;22591;48.314;11.562;2023-02-26T02:02:00;-1.00;99.90
36586;DHT22;22591;48.314;11.562;2023-02-26T02:04:27;-1.00;99.90
36586;DHT22;22591;48.314;11.562;2023-02-26T02:06:53;-0.90;99.90
36586;DHT22;22591;48.314;11.562;2023-02-26T02:09:19;-0.90;99.90
36586;DHT22;22591;48.314;11.562;2023-02-26T02:15:11;-0.90;99.90
36586;DHT22;22591;48.314;11.562;2023-02-26T02:17:49;-1.00;99.90
36586;DHT22;22591;48.314;11.562;2023-02-26T02:26:00;-1.00;99.90
36586;DHT22;22591;48.314;11.562;2023-02-26T02:31:25;-1.20;99.90
36586;DHT22;22591;48.314;11.562;2023-02-26T02:33:59;-1.20;99.90
36586;DHT22;22591;48.314;11.562;2023-02-26T02:42:05;-1.20;99.90
36586;DHT22;22591;48.314;11.562;2023-02-26T02:44:39;-1.40;99.90
36586;DHT22;22591;48.314;11.562;2023-02-26T02:47:08;-1.40;99.90
36586;DHT22;22591;48.314;11.562;2023-02-26T02:49:38;-1.40;99.90
36586;DHT22;22591;48.314;11.562;2023-02-26T02:54:54;-1.60;99.90
36586;DHT22;22591;48.314;11.562;2023-02-26T02:57:25;-1.70;99.90
36586;DHT22;22591;48.314;11.562;2023-02-26T03:00:00;-1.70;99.90
36586;DHT22;22591;48.314;11.562;2023-02-26T03:03:12;-1.70;99.90
36586;DHT22;22591;48.314;11.562;2023-02-26T03:05:12;-1.70;99.90
36586;DHT22;22591;48.314;11.562;2023-02-26T03:07:53;-1.60;99.90
36586;DHT22;22591;48.314;11.562;2023-02-26T03:10:19;-1.60;99.90
36586;DHT22;22591;48.314;11.562;2023-02-26T03:12:45;-1.70;99.90
36586;DHT22;22591;48.314;11.562;2023-02-26T03:15:12;-1.70;99.90
36586;DHT22;22591;48.314;11.562;2023-02-26T03:17:45;-1.60;99.90
36586;DHT22;22591;48.314;11.562;2023-02-26T03:20:30;-1.70;99.90
36586;DHT22;22591;48.314;11.562;2023-02-26T03:23:00;-1.70;99.90
36586;DHT22;22591;48.314;11.562;2023-02-26T03:25:55;-1.60;99.90
36586;DHT22;22591;48.314;11.562;2023-02-26T03:28:58;-1.70;99.90
36586;DHT22;22591;48.314;11.562;2023-02-26T03:31:39;-1.60;99.90
36586;DHT22;22591;48.314;11.562;2023-02-26T03:34:34;-1.70;99.90
36586;DHT22;22591;48.314;11.562;2023-02-26T03:37:07;-1.70;99.90
36586;DHT22;22591;48.314;11.562;2023-02-26T03:39:41;-1.70;99.90
36586;DHT22;22591;48.314;11.562;2023-02-26T03:45:18;-1.70;99.90
36586;DHT22;22591;48.314;11.562;2023-02-26T03:47:47;-1.70;99.90
36586;DHT22;22591;48.314;11.562;2023-02-26T03:50:24;-1.80;99.90
36586;DHT22;22591;48.314;11.562;2023-02-26T03:52:52;-1.70;99.90
36586;DHT22;22591;48.314;11.562;2023-02-26T03:55:23;-1.80;99.90
36586;DHT22;22591;48.314;11.562;2023-02-26T03:57:50;-1.80;99.90
36586;DHT22;22591;48.314;11.562;2023-02-26T04:00:16;-1.70;99.90
36586;DHT22;22591;48.314;11.562;2023-02-26T04:02:53;-1.80;99.90
36586;DHT22;22591;48.314;11.562;2023-02-26T04:05:23;-1.80;99.90
36586;DHT22;22591;48.314;11.562;2023-02-26T04:07:50;-1.80;99.90
36586;DHT22;22591;48.314;11.562;2023-02-26T04:10:19;-1.80;99.90
36586;DHT22;22591;48.314;11.562;2023-02-26T04:12:46;-1.80;99.90
36586;DHT22;22591;48.314;11.562;2023-02-26T04:15:12;-1.90;99.90
36586;DHT22;22591;48.314;11.562;2023-02-26T04:17:38;-2.00;99.90
36586;DHT22;22591;48.314;11.562;2023-02-26T04:20:05;-2.00;99.90
36586;DHT22;22591;48.314;11.562;2023-02-26T04:22:37;-2.00;99.90
36586;DHT22;22591;48.314;11.562;2023-02-26T04:25:03;-2.10;99.90
36586;DHT22;22591;48.314;11.562;2023-02-26T04:27:29;-2.20;99.90
36586;DHT22;22591;48.314;11.562;2023-02-26T04:29:55;-2.20;99.90
36586;DHT22;22591;48.314;11.562;2023-02-26T04:32:20;-2.30;99.90
36586;DHT22;22591;48.314;11.562;2023-02-26T04:34:46;-2.30;99.90
36586;DHT22;22591;48.314;11.562;2023-02-26T04:37:11;-2.40;99.90
36586;DHT22;22591;48.314;11.562;2023-02-26T04:39:37;-2.40;99.90
36586;DHT22;22591;48.314;11.562;2023-02-26T04:42:02;-2.50;99.90
36586;DHT22;22591;48.314;11.562;2023-02-26T04:44:29;-2.50;99.90
36586;DHT22;22591;48.314;11.562;2023-02-26T04:46:54;-2.60;99.90
36586;DHT22;22591;48.314;11.562;2023-02-26T04:49:20;-2.60;99.90
36586;DHT22;22591;48.314;11.562;2023-02-26T04:51:46;-2.60;99.90
36586;DHT22;22591;48.314;11.562;2023-02-26T04:54:11;-2.70;99.90
36586;DHT22;22591;48.314;11.562;2023-02-26T04:56:37;-2.70;99.90
36586;DHT22;22591;48.314;11.562;2023-02-26T04:59:02;-2.80;99.90
36586;DHT22;22591;48.314;11.562;2023-02-26T05:01:28;-2.80;99.90
36586;DHT22;22591;48.314;11.562;2023-02-26T05:03:53;-2.80;99.90
36586;DHT22;22591;48.314;11.562;2023-02-26T05:06:19;-2.90;99.90
36586;DHT22;22591;48.314;11.562;2023-02-26T05:08:44;-2.90;99.90
36586;DHT22;22591;48.314;11.562;2023-02-26T05:11:10;-3.00;99.90
36586;DHT22;22591;48.314;11.562;2023-02-26T05:13:36;-3.00;99.90
36586;DHT22;22591;48.314;11.562;2023-02-26T05:16:02;-3.10;99.90
36586;DHT22;22591;48.314;11.562;2023-02-26T05:18:28;-3.20;99.90
36586;DHT22;22591;48.314;11.562;2023-02-26T05:20:54;-3.10;99.90
36586;DHT22;22591;48.314;11.562;2023-02-26T05:23:20;-3.20;99.90
36586;DHT22;22591;48.314;11.562;2023-02-26T05:25:46;-3.20;99.90
36586;DHT22;22591;48.314;11.562;2023-02-26T05:28:12;-3.20;99.90
36586;DHT22;22591;48.314;11.562;2023-02-26T05:30:39;-3.20;99.90
36586;DHT22;22591;48.314;11.562;2023-02-26T05:33:04;-3.30;99.90
36586;DHT22;22591;48.314;11.562;2023-02-26T05:35:30;-3.30;99.90
36586;DHT22;22591;48.314;11.562;2023-02-26T05:37:55;-3.40;99.90
36586;DHT22;22591;48.314;11.562;2023-02-26T05:40:21;-3.50;99.90
36586;DHT22;22591;48.314;11.562;2023-02-26T05:42:47;-3.50;99.90
36586;DHT22;22591;48.314;11.562;2023-02-26T05:45:13;-3.50;99.90
36586;DHT22;22591;48.314;11.562;2023-02-26T05:47:38;-3.50;99.90
36586;DHT22;22591;48.314;11.562;2023-02-26T05:50:05;-3.50;99.90
36586;DHT22;22591;48.314;11.562;2023-02-26T05:52:31;-3.60;99.90
36586;DHT22;22591;48.314;11.562;2023-02-26T05:54:56;-3.60;99.90
36586;DHT22;22591;48.314;11.562;2023-02-26T05:57:23;-3.60;99.90
36586;DHT22;22591;48.314;11.562;2023-02-26T05:59:48;-3.60;99.90
36586;DHT22;22591;48.314;11.562;2023-02-26T06:02:14;-3.70;99.90
36586;DHT22;22591;48.314;11.562;2023-02-26T06:04:40;-3.70;99.90
36586;DHT22;22591;48.314;11.562;2023-02-26T06:07:05;-3.50;99.90
36586;DHT22;22591;48.314;11.562;2023-02-26T06:09:31;-3.70;99.90
36586;DHT22;22591;48.314;11.562;2023-02-26T06:11:56;-3.70;99.90
36586;DHT22;22591;48.314;11.562;2023-02-26T06:14:22;-3.70;99.90
36586;DHT22;22591;48.314;11.562;2023-02-26T06:16:47;-3.70;99.90
36586;DHT22;22591;48.314;11.562;2023-02-26T06:19:13;-3.70;99.90
36586;DHT22;22591;48.314;11.562;2023-02-26T06:21:38;-3.80;99.90
36586;DHT22;22591;48.314;11.562;2023-02-26T06:24:04;-3.80;99.90
36586;DHT22;22591;48.314;11.562;2023-02-26T06:26:30;-3.80;99.90
36586;DHT22;22591;48.314;11.562;2023-02-26T06:28:56;-3.80;99.90
36586;DHT22;22591;48.314;11.562;2023-02-26T06:31:22;-3.80;99.90
36586;DHT22;22591;48.314;11.562;2023-02-26T06:33:48;-3.80;99.90
36586;DHT22;22591;48.314;11.562;2023-02-26T06:36:13;-3.70;99.90
36586;DHT22;22591;48.314;11.562;2023-02-26T06:38:39;-3.80;99.90
36586;DHT22;22591;48.314;11.562;2023-02-26T06:41:04;-3.80;99.90
36586;DHT22;22591;48.314;11.562;2023-02-26T06:43:30;-3.80;99.90
36586;DHT22;22591;48.314;11.562;2023-02-26T06:45:57;-3.80;99.90
36586;DHT22;22591;48.314;11.562;2023-02-26T06:48:23;-3.70;99.90
36586;DHT22;22591;48.314;11.562;2023-02-26T06:50:48;-3.70;99.90
36586;DHT22;22591;48.314;11.562;2023-02-26T06:53:14;-3.70;99.90
36586;DHT22;22591;48.314;11.562;2023-02-26T06:55:44;-3.70;99.90
36586;DHT22;22591;48.314;11.562;2023-02-26T06:58:10;-3.60;99.90
36586;DHT22;22591;48.314;11.562;2023-02-26T07:00:36;-3.60;99.90
36586;DHT22;22591;48.314;11.562;2023-02-26T07:03:02;-3.50;99.90
36586;DHT22;22591;48.314;11.562;2023-02-26T07:05:28;-3.40;99.90
36586;DHT22;22591;48.314;11.562;2023-02-26T07:07:54;-3.50;99.90
36586;DHT22;22591;48.314;11.562;2023-02-26T07:10:19;-3.40;99.90
36586;DHT22;22591;48.314;11.562;2023-02-26T07:12:46;-3.30;99.90
36586;DHT22;22591;48.314;11.562;2023-02-26T07:15:13;-3.20;99.90
36586;DHT22;22591;48.314;11.562;2023-02-26T07:17:39;-3.20;99.90
36586;DHT22;22591;48.314;11.562;2023-02-26T07:20:05;-3.20;99.90
36586;DHT22;22591;48.314;11.562;2023-02-26T07:22:35;-3.10;99.90
36586;DHT22;22591;48.314;11.562;2023-02-26T07:25:01;-3.00;99.90
36586;DHT22;22591;48.314;11.562;2023-02-26T07:27:27;-2.90;99.90
36586;DHT22;22591;48.314;11.562;2023-02-26T07:29:54;-2.80;99.90
36586;DHT22;22591;48.314;11.562;2023-02-26T07:32:20;-2.60;99.90
36586;DHT22;22591;48.314;11.562;2023-02-26T07:34:45;-2.50;99.90
36586;DHT22;22591;48.314;11.562;2023-02-26T07:37:11;-2.40;99.90
36586;DHT22;22591;48.314;11.562;2023-02-26T07:39:37;-2.20;99.90
36586;DHT22;22591;48.314;11.562;2023-02-26T07:42:02;-2.20;99.90
36586;DHT22;22591;48.314;11.562;2023-02-26T07:44:28;-2.20;99.90
36586;DHT22;22591;48.314;11.562;2023-02-26T07:46:54;-2.30;99.90
36586;DHT22;22591;48.314;11.562;2023-02-26T07:49:19;-2.20;99.90
36586;DHT22;22591;48.314;11.562;2023-02-26T07:51:45;-2.10;99.90
36586;DHT22;22591;48.314;11.562;2023-02-26T07:54:14;-2.10;99.90
36586;DHT22;22591;48.314;11.562;2023-02-26T07:56:40;-2.10;99.90
36586;DHT22;22591;48.314;11.562;2023-02-26T07:59:07;-1.80;99.90
36586;DHT22;22591;48.314;11.562;2023-02-26T08:01:33;-1.60;99.90
36586;DHT22;22591;48.314;11.562;2023-02-26T08:03:58;-1.30;99.90
36586;DHT22;22591;48.314;11.562;2023-02-26T08:06:24;-1.10;99.90
36586;DHT22;22591;48.314;11.562;2023-02-26T08:08:49;-0.80;99.90
36586;DHT22;22591;48.314;11.562;2023-02-26T08:11:15;-0.60;99.90
36586;DHT22;22591;48.314;11.562;2023-02-26T08:13:41;-0.40;99.90
36586;DHT22;22591;48.314;11.562;2023-02-26T08:16:06;-0.50;99.90
36586;DHT22;22591;48.314;11.562;2023-02-26T08:18:32;-0.40;99.90
36586;DHT22;22591;48.314;11.562;2023-02-26T08:20:57;-0.20;99.90
36586;DHT22;22591;48.314;11.562;2023-02-26T08:23:23;0.10;99.90
36586;DHT22;22591;48.314;11.562;2023-02-26T08:25:48;0.20;99.90
36586;DHT22;22591;48.314;11.562;2023-02-26T08:28:15;0.30;99.90
36586;DHT22;22591;48.314;11.562;2023-02-26T08:30:40;0.20;99.90
36586;DHT22;22591;48.314;11.562;2023-02-26T08:33:06;0.00;99.90
36586;DHT22;22591;48.314;11.562;2023-02-26T08:35:31;0.00;99.90
36586;DHT22;22591;48.314;11.562;2023-02-26T08:37:57;-0.10;99.90
36586;DHT22;22591;48.314;11.562;2023-02-26T08:40:23;-0.10;99.90
36586;DHT22;22591;48.314;11.562;2023-02-26T08:42:48;-0.10;99.90
36586;DHT22;22591;48.314;11.562;2023-02-26T08:45:14;-0.10;99.90
36586;DHT22;22591;48.314;11.562;2023-02-26T08:47:39;-0.10;99.90
36586;DHT22;22591;48.314;11.562;2023-02-26T08:50:10;-0.10;99.90
36586;DHT22;22591;48.314;11.562;2023-02-26T08:52:36;0.00;99.90
36586;DHT22;22591;48.314;11.562;2023-02-26T08:55:03;0.20;99.90
36586;DHT22;22591;48.314;11.562;2023-02-26T08:57:28;0.50;99.90
36586;DHT22;22591;48.314;11.562;2023-02-26T08:59:54;0.70;99.90
36586;DHT22;22591;48.314;11.562;2023-02-26T09:02:19;0.90;99.90
36586;DHT22;22591;48.314;11.562;2023-02-26T09:04:45;0.80;99.90
36586;DHT22;22591;48.314;11.562;2023-02-26T09:07:11;0.80;99.90
36586;DHT22;22591;48.314;11.562;2023-02-26T09:09:37;0.80;99.90
36586;DHT22;22591;48.314;11.562;2023-02-26T09:12:02;0.80;99.90
36586;DHT22;22591;48.314;11.562;2023-02-26T09:14:28;0.70;99.90
36586;DHT22;22591;48.314;11.562;2023-02-26T09:16:53;0.50;99.90
36586;DHT22;22591;48.314;11.562;2023-02-26T09:19:19;0.40;99.90
36586;DHT22;22591;48.314;11.562;2023-02-26T09:21:46;0.30;99.90
36586;DHT22;22591;48.314;11.562;2023-02-26T09:24:11;0.30;99.90
36586;DHT22;22591;48.314;11.562;2023-02-26T09:26:37;0.40;99.90
36586;DHT22;22591;48.314;11.562;2023-02-26T09:29:03;0.40;99.90
36586;DHT22;22591;48.314;11.562;2023-02-26T09:31:29;0.40;99.90
36586;DHT22;22591;48.314;11.562;2023-02-26T09:33:54;0.50;99.90
36586;DHT22;22591;48.314;11.562;2023-02-26T09:36:20;0.50;99.90
36586;DHT22;22591;48.314;11.562;2023-02-26T09:38:46;0.50;99.90
36586;DHT22;22591;48.314;11.562;2023-02-26T09:41:29;0.50;99.90
36586;DHT22;22591;48.314;11.562;2023-02-26T09:44:04;0.60;99.90
36586;DHT22;22591;48.314;11.562;2023-02-26T09:47:19;0.50;99.90
36586;DHT22;22591;48.314;11.562;2023-02-26T09:49:46;0.10;99.90
36586;DHT22;22591;48.314;11.562;2023-02-26T09:52:27;0.30;99.90
36586;DHT22;22591;48.314;11.562;2023-02-26T09:55:00;0.40;99.90
36586;DHT22;22591;48.314;11.562;2023-02-26T09:57:35;0.40;99.90
36586;DHT22;22591;48.314;11.562;2023-02-26T10:00:30;0.60;99.90
36586;DHT22;22591;48.314;11.562;2023-02-26T10:14:15;2.40;99.90
36586;DHT22;22591;48.314;11.562;2023-02-26T10:16:45;2.60;99.90
36586;DHT22;22591;48.314;11.562;2023-02-26T10:19:16;2.60;99.90
36586;DHT22;22591;48.314;11.562;2023-02-26T10:21:53;2.70;99.90
36586;DHT22;22591;48.314;11.562;2023-02-26T10:24:25;2.80;99.90
36586;DHT22;22591;48.314;11.562;2023-02-26T10:26:57;2.90;99.90
36586;DHT22;22591;48.314;11.562;2023-02-26T10:29:27;2.80;99.90
36586;DHT22;22591;48.314;11.562;2023-02-26T10:32:19;2.60;99.90
36586;DHT22;22591;48.314;11.562;2023-02-26T10:34:55;2.30;99.90
36586;DHT22;22591;48.314;11.562;2023-02-26T10:39:57;2.20;99.90
36586;DHT22;22591;48.314;11.562;2023-02-26T10:42:34;2.20;99.90
36586;DHT22;22591;48.314;11.562;2023-02-26T10:50:21;2.20;99.90
36586;DHT22;22591;48.314;11.562;2023-02-26T10:52:49;2.10;99.90
36586;DHT22;22591;48.314;11.562;2023-02-26T10:55:42;2.00;99.90
36586;DHT22;22591;48.314;11.562;2023-02-26T10:58:22;1.90;99.90
36586;DHT22;22591;48.314;11.562;2023-02-26T11:00:49;1.80;99.90
36586;DHT22;22591;48.314;11.562;2023-02-26T11:03:31;1.80;99.90
36586;DHT22;22591;48.314;11.562;2023-02-26T11:05:59;1.90;99.90
36586;DHT22;22591;48.314;11.562;2023-02-26T11:08:32;2.20;99.90
36586;DHT22;22591;48.314;11.562;2023-02-26T11:11:01;2.40;99.90
36586;DHT22;22591;48.314;11.562;2023-02-26T11:13:29;2.40;99.90
36586;DHT22;22591;48.314;11.562;2023-02-26T11:15:57;2.30;99.90
36586;DHT22;22591;48.314;11.562;2023-02-26T11:18:31;2.10;99.90
36586;DHT22;22591;48.314;11.562;2023-02-26T11:21:03;1.90;99.90
36586;DHT22;22591;48.314;11.562;2023-02-26T11:23:30;1.70;99.90
36586;DHT22;22591;48.314;11.562;2023-02-26T11:26:02;1.50;99.90
36586;DHT22;22591;48.314;11.562;2023-02-26T11:28:41;1.30;99.90
36586;DHT22;22591;48.314;11.562;2023-02-26T11:31:10;1.40;99.90
36586;DHT22;22591;48.314;11.562;2023-02-26T11:33:43;1.50;99.90
36586;DHT22;22591;48.314;11.562;2023-02-26T11:36:13;1.60;99.90
36586;DHT22;22591;48.314;11.562;2023-02-26T11:38:40;1.80;99.90
36586;DHT22;22591;48.314;11.562;2023-02-26T11:41:10;2.20;99.90
36586;DHT22;22591;48.314;11.562;2023-02-26T11:43:41;2.20;99.90
36586;DHT22;22591;48.314;11.562;2023-02-26T11:46:08;2.20;99.90
36586;DHT22;22591;48.314;11.562;2023-02-26T11:48:39;2.20;99.90
36586;DHT22;22591;48.314;11.562;2023-02-26T11:51:06;2.20;99.90
36586;DHT22;22591;48.314;11.562;2023-02-26T11:53:35;2.30;99.90
36586;DHT22;22591;48.314;11.562;2023-02-26T11:56:12;2.30;99.90
36586;DHT22;22591;48.314;11.562;2023-02-26T11:58:42;2.00;99.90
36586;DHT22;22591;48.314;11.562;2023-02-26T12:01:11;1.90;99.90
36586;DHT22;22591;48.314;11.562;2023-02-26T12:03:38;1.90;99.90
36586;DHT22;22591;48.314;11.562;2023-02-26T12:06:18;2.00;99.90
36586;DHT22;22591;48.314;11.562;2023-02-26T12:08:44;2.20;99.90
36586;DHT22;22591;48.314;11.562;2023-02-26T12:13:59;3.20;99.90
36586;DHT22;22591;48.314;11.562;2023-02-26T12:19:10;3.30;99.90
36586;DHT22;22591;48.314;11.562;2023-02-26T12:21:51;3.30;99.90
36586;DHT22;22591;48.314;11.562;2023-02-26T12:27:01;3.10;99.90
36586;DHT22;22591;48.314;11.562;2023-02-26T12:35:19;2.80;99.90
36586;DHT22;22591;48.314;11.562;2023-02-26T12:37:55;2.70;99.90
36586;DHT22;22591;48.314;11.562;2023-02-26T12:43:23;2.60;99.90
36586;DHT22;22591;48.314;11.562;2023-02-26T12:57:53;2.60;99.90
36586;DHT22;22591;48.314;11.562;2023-02-26T13:08:45;1.90;99.90
36586;DHT22;22591;48.314;11.562;2023-02-26T13:11:45;1.80;99.90
36586;DHT22;22591;48.314;11.562;2023-02-26T13:14:28;1.90;99.90
36586;DHT22;22591;48.314;11.562;2023-02-26T13:17:15;2.00;99.90
36586;DHT22;22591;48.314;11.562;2023-02-26T13:19:54;2.20;99.90
36586;DHT22;22591;48.314;11.562;2023-02-26T13:22:25;2.40;99.90
36586;DHT22;22591;48.314;11.562;2023-02-26T13:27:43;2.40;99.90
36586;DHT22;22591;48.314;11.562;2023-02-26T13:30:24;2.50;99.90
36586;DHT22;22591;48.314;11.562;2023-02-26T13:32:54;2.50;99.90
36586;DHT22;22591;48.314;11.562;2023-02-26T13:35:24;2.50;99.90
36586;DHT22;22591;48.314;11.562;2023-02-26T13:37:53;2.40;99.90
36586;DHT22;22591;48.314;11.562;2023-02-26T13:43:21;2.40;99.90
36586;DHT22;22591;48.314;11.562;2023-02-26T13:46:12;2.40;99.90
36586;DHT22;22591;48.314;11.562;2023-02-26T13:51:48;2.70;99.90
36586;DHT22;22591;48.314;11.562;2023-02-26T14:01:53;2.80;99.90
36586;DHT22;22591;48.314;11.562;2023-02-26T14:04:23;2.80;99.90
36586;DHT22;22591;48.314;11.562;2023-02-26T14:07:26;2.80;99.90
36586;DHT22;22591;48.314;11.562;2023-02-26T14:10:01;2.60;99.90
36586;DHT22;22591;48.314;11.562;2023-02-26T14:12:36;2.30;99.90
36586;DHT22;22591;48.314;11.562;2023-02-26T14:17:47;2.20;99.90
36586;DHT22;22591;48.314;11.562;2023-02-26T14:20:30;2.30;99.90
36586;DHT22;22591;48.314;11.562;2023-02-26T14:25:50;2.60;99.90
36586;DHT22;22591;48.314;11.562;2023-02-26T14:31:22;2.30;99.90
36586;DHT22;22591;48.314;11.562;2023-02-26T14:34:13;2.00;99.90
36586;DHT22;22591;48.314;11.562;2023-02-26T14:36:48;1.70;99.90
36586;DHT22;22591;48.314;11.562;2023-02-26T14:39:29;1.50;99.90
36586;DHT22;22591;48.314;11.562;2023-02-26T14:42:02;1.40;99.90
36586;DHT22;22591;48.314;11.562;2023-02-26T14:44:55;1.50;99.90
36586;DHT22;22591;48.314;11.562;2023-02-26T14:47:18;1.50;99.90
36586;DHT22;22591;48.314;11.562;2023-02-26T14:49:46;1.40;99.90
36586;DHT22;22591;48.314;11.562;2023-02-26T14:58:07;1.40;99.90
36586;DHT22;22591;48.314;11.562;2023-02-26T15:00:52;1.40;99.90
36586;DHT22;22591;48.314;11.562;2023-02-26T15:04:05;1.30;99.90
36586;DHT22;22591;48.314;11.562;2023-02-26T15:09:41;1.30;99.90
36586;DHT22;22591;48.314;11.562;2023-02-26T15:12:41;1.30;99.90
36586;DHT22;22591;48.314;11.562;2023-02-26T15:23:47;1.30;99.90
36586;DHT22;22591;48.314;11.562;2023-02-26T15:26:23;1.20;99.90
36586;DHT22;22591;48.314;11.562;2023-02-26T15:28:52;1.20;99.90
36586;DHT22;22591;48.314;11.562;2023-02-26T15:31:21;1.20;99.90
36586;DHT22;22591;48.314;11.562;2023-02-26T15:33:55;1.30;99.90
36586;DHT22;22591;48.314;11.562;2023-02-26T15:36:21;1.40;99.90
36586;DHT22;22591;48.314;11.562;2023-02-26T15:38:55;1.50;99.90
36586;DHT22;22591;48.314;11.562;2023-02-26T15:41:23;1.60;99.90
36586;DHT22;22591;48.314;11.562;2023-02-26T15:44:02;1.60;99.90
36586;DHT22;22591;48.314;11.562;2023-02-26T15:46:32;1.60;99.90
36586;DHT22;22591;48.314;11.562;2023-02-26T15:49:06;1.40;99.90
36586;DHT22;22591;48.314;11.562;2023-02-26T15:51:33;1.20;99.90
36586;DHT22;22591;48.314;11.562;2023-02-26T15:53:59;1.00;99.90
36586;DHT22;22591;48.314;11.562;2023-02-26T15:56:30;0.90;99.90
36586;DHT22;22591;48.314;11.562;2023-02-26T15:59:16;0.80;99.90
36586;DHT22;22591;48.314;11.562;2023-02-26T16:01:42;0.70;99.90
36586;DHT22;22591;48.314;11.562;2023-02-26T16:04:17;0.70;99.90
36586;DHT22;22591;48.314;11.562;2023-02-26T16:06:48;0.70;99.90
36586;DHT22;22591;48.314;11.562;2023-02-26T16:09:32;0.70;99.90
36586;DHT22;22591;48.314;11.562;2023-02-26T16:12:09;0.70;99.90
36586;DHT22;22591;48.314;11.562;2023-02-26T16:14:40;0.90;99.90
36586;DHT22;22591;48.314;11.562;2023-02-26T16:17:13;1.00;99.90
36586;DHT22;22591;48.314;11.562;2023-02-26T16:19:47;1.10;99.90
36586;DHT22;22591;48.314;11.562;2023-02-26T16:25:11;1.10;99.90
36586;DHT22;22591;48.314;11.562;2023-02-26T16:27:41;1.10;99.90
36586;DHT22;22591;48.314;11.562;2023-02-26T16:30:19;1.10;99.90
36586;DHT22;22591;48.314;11.562;2023-02-26T16:32:51;1.10;99.90
36586;DHT22;22591;48.314;11.562;2023-02-26T16:35:21;1.10;99.90
36586;DHT22;22591;48.314;11.562;2023-02-26T16:37:53;1.00;99.90
36586;DHT22;22591;48.314;11.562;2023-02-26T16:40:37;1.00;99.90
36586;DHT22;22591;48.314;11.562;2023-02-26T16:46:12;0.70;99.90
36586;DHT22;22591;48.314;11.562;2023-02-26T16:48:59;0.50;99.90
36586;DHT22;22591;48.314;11.562;2023-02-26T16:51:29;0.40;99.90
36586;DHT22;22591;48.314;11.562;2023-02-26T16:54:01;0.30;99.90
36586;DHT22;22591;48.314;11.562;2023-02-26T16:56:33;0.30;99.90
36586;DHT22;22591;48.314;11.562;2023-02-26T17:01:34;0.20;99.90
36586;DHT22;22591;48.314;11.562;2023-02-26T17:04:03;0.20;99.90
36586;DHT22;22591;48.314;11.562;2023-02-26T17:06:31;0.20;99.90
36586;DHT22;22591;48.314;11.562;2023-02-26T17:09:05;0.20;99.90
36586;DHT22;22591;48.314;11.562;2023-02-26T17:11:42;0.20;99.90
36586;DHT22;22591;48.314;11.562;2023-02-26T17:14:22;0.20;99.90
36586;DHT22;22591;48.314;11.562;2023-02-26T17:16:51;0.20;99.90
36586;DHT22;22591;48.314;11.562;2023-02-26T17:19:18;0.20;99.90
36586;DHT22;22591;48.314;11.562;2023-02-26T17:21:54;0.20;99.90
36586;DHT22;22591;48.314;11.562;2023-02-26T17:24:38;0.20;99.90
36586;DHT22;22591;48.314;11.562;2023-02-26T17:27:16;0.20;99.90
36586;DHT22;22591;48.314;11.562;2023-02-26T17:29:49;0.30;99.90
36586;DHT22;22591;48.314;11.562;2023-02-26T17:32:20;0.30;99.90
36586;DHT22;22591;48.314;11.562;2023-02-26T17:34:47;0.30;99.90
36586;DHT22;22591;48.314;11.562;2023-02-26T17:37:14;0.30;99.90
36586;DHT22;22591;48.314;11.562;2023-02-26T17:39:40;0.20;99.90
36586;DHT22;22591;48.314;11.562;2023-02-26T17:42:11;0.20;99.90
36586;DHT22;22591;48.314;11.562;2023-02-26T17:44:37;0.10;99.90
36586;DHT22;22591;48.314;11.562;2023-02-26T17:47:03;0.10;99.90
36586;DHT22;22591;48.314;11.562;2023-02-26T17:49:28;0.00;99.90
36586;DHT22;22591;48.314;11.562;2023-02-26T17:51:54;0.00;99.90
36586;DHT22;22591;48.314;11.562;2023-02-26T17:54:19;-0.10;99.90
36586;DHT22;22591;48.314;11.562;2023-02-26T17:56:45;-0.10;99.90
36586;DHT22;22591;48.314;11.562;2023-02-26T17:59:10;-0.20;99.90
36586;DHT22;22591;48.314;11.562;2023-02-26T18:01:40;-0.10;99.90
36586;DHT22;22591;48.314;11.562;2023-02-26T18:04:06;-0.20;99.90
36586;DHT22;22591;48.314;11.562;2023-02-26T18:06:34;-0.20;99.90
36586;DHT22;22591;48.314;11.562;2023-02-26T18:09:01;-0.20;99.90